sensor_id;sensor_type;location;lat;lon;timestamp;P1;durP1;ratioP1;P2;durP2;ratioP2
13419;SDS011;6781;58.440;15.470;2022-08-05T00:00:13;2.05;;;1.38;;
13419;SDS011;6781;58.440;15.470;2022-08-05T00:02:41;2.40;;;0.98;;
13419;SDS011;6781;58.440;15.470;2022-08-05T00:05:15;2.03;;;1.20;;
13419;SDS011;6781;58.440;15.470;2022-08-05T00:07:52;0.93;;;0.85;;
13419;SDS011;6781;58.440;15.470;2022-08-05T00:10:21;2.17;;;1.23;;
13419;SDS011;6781;58.440;15.470;2022-08-05T00:12:48;1.20;;;1.10;;
13419;SDS011;6781;58.440;15.470;2022-08-05T00:15:15;1.70;;;1.10;;
13419;SDS011;6781;58.440;15.470;2022-08-05T00:17:42;1.10;;;1.00;;
13419;SDS011;6781;58.440;15.470;2022-08-05T00:20:08;1.27;;;1.17;;
13419;SDS011;6781;58.440;15.470;2022-08-05T00:22:35;1.20;;;1.08;;
13419;SDS011;6781;58.440;15.470;2022-08-05T00:25:03;1.15;;;1.05;;
13419;SDS011;6781;58.440;15.470;2022-08-05T00:27:39;0.95;;;0.95;;
13419;SDS011;6781;58.440;15.470;2022-08-05T00:30:07;1.63;;;1.10;;
13419;SDS011;6781;58.440;15.470;2022-08-05T00:32:35;1.20;;;1.10;;
13419;SDS011;6781;58.440;15.470;2022-08-05T00:35:02;3.42;;;1.23;;
13419;SDS011;6781;58.440;15.470;2022-08-05T00:37:29;1.25;;;1.00;;
13419;SDS011;6781;58.440;15.470;2022-08-05T00:39:56;1.10;;;1.10;;
13419;SDS011;6781;58.440;15.470;2022-08-05T00:42:29;2.92;;;0.90;;
13419;SDS011;6781;58.440;15.470;2022-08-05T00:44:58;1.55;;;1.45;;
13419;SDS011;6781;58.440;15.470;2022-08-05T00:47:25;1.20;;;1.20;;
13419;SDS011;6781;58.440;15.470;2022-08-05T00:49:56;0.93;;;0.93;;
13419;SDS011;6781;58.440;15.470;2022-08-05T00:52:23;1.48;;;1.33;;
13419;SDS011;6781;58.440;15.470;2022-08-05T00:54:51;3.00;;;1.05;;
13419;SDS011;6781;58.440;15.470;2022-08-05T00:57:19;1.63;;;1.08;;
13419;SDS011;6781;58.440;15.470;2022-08-05T01:03:01;2.88;;;1.17;;
13419;SDS011;6781;58.440;15.470;2022-08-05T01:05:29;1.30;;;1.20;;
13419;SDS011;6781;58.440;15.470;2022-08-05T01:07:56;1.70;;;1.42;;
13419;SDS011;6781;58.440;15.470;2022-08-05T01:10:23;1.35;;;1.20;;
13419;SDS011;6781;58.440;15.470;2022-08-05T01:12:57;1.20;;;1.20;;
13419;SDS011;6781;58.440;15.470;2022-08-05T01:15:32;1.30;;;1.20;;
13419;SDS011;6781;58.440;15.470;2022-08-05T01:18:06;1.67;;;1.23;;
13419;SDS011;6781;58.440;15.470;2022-08-05T01:20:39;3.03;;;1.67;;
13419;SDS011;6781;58.440;15.470;2022-08-05T01:23:20;1.33;;;1.25;;
13419;SDS011;6781;58.440;15.470;2022-08-05T01:26:09;2.72;;;1.30;;
13419;SDS011;6781;58.440;15.470;2022-08-05T01:28:46;1.92;;;1.60;;
13419;SDS011;6781;58.440;15.470;2022-08-05T01:31:21;1.58;;;1.30;;
13419;SDS011;6781;58.440;15.470;2022-08-05T01:33:54;2.55;;;1.77;;
13419;SDS011;6781;58.440;15.470;2022-08-05T01:36:25;2.80;;;1.35;;
13419;SDS011;6781;58.440;15.470;2022-08-05T01:38:58;5.88;;;1.20;;
13419;SDS011;6781;58.440;15.470;2022-08-05T01:41:26;1.42;;;1.33;;
13419;SDS011;6781;58.440;15.470;2022-08-05T01:43:59;1.80;;;1.50;;
13419;SDS011;6781;58.440;15.470;2022-08-05T01:46:27;1.85;;;1.30;;
13419;SDS011;6781;58.440;15.470;2022-08-05T01:48:56;1.88;;;1.40;;
13419;SDS011;6781;58.440;15.470;2022-08-05T01:51:24;2.58;;;1.58;;
13419;SDS011;6781;58.440;15.470;2022-08-05T01:53:52;1.45;;;1.35;;
13419;SDS011;6781;58.440;15.470;2022-08-05T01:56:27;2.45;;;1.13;;
13419;SDS011;6781;58.440;15.470;2022-08-05T01:58:56;1.30;;;1.20;;
13419;SDS011;6781;58.440;15.470;2022-08-05T02:01:27;1.77;;;1.30;;
13419;SDS011;6781;58.440;15.470;2022-08-05T02:03:55;3.75;;;1.67;;
13419;SDS011;6781;58.440;15.470;2022-08-05T02:08:58;2.63;;;1.52;;
13419;SDS011;6781;58.440;15.470;2022-08-05T02:11:25;2.70;;;1.38;;
13419;SDS011;6781;58.440;15.470;2022-08-05T02:13:59;1.70;;;1.60;;
13419;SDS011;6781;58.440;15.470;2022-08-05T02:16:38;1.50;;;1.40;;
13419;SDS011;6781;58.440;15.470;2022-08-05T02:19:10;1.48;;;1.38;;
13419;SDS011;6781;58.440;15.470;2022-08-05T02:21:44;1.92;;;1.40;;
13419;SDS011;6781;58.440;15.470;2022-08-05T02:24:18;1.60;;;1.50;;
13419;SDS011;6781;58.440;15.470;2022-08-05T02:26:49;1.85;;;1.50;;
13419;SDS011;6781;58.440;15.470;2022-08-05T02:29:22;3.30;;;1.60;;
13419;SDS011;6781;58.440;15.470;2022-08-05T02:31:51;2.13;;;1.92;;
13419;SDS011;6781;58.440;15.470;2022-08-05T02:34:22;2.25;;;1.70;;
13419;SDS011;6781;58.440;15.470;2022-08-05T02:36:52;3.25;;;1.70;;
13419;SDS011;6781;58.440;15.470;2022-08-05T02:39:22;2.15;;;1.58;;
13419;SDS011;6781;58.440;15.470;2022-08-05T02:41:52;1.60;;;1.50;;
13419;SDS011;6781;58.440;15.470;2022-08-05T02:44:24;1.60;;;1.48;;
13419;SDS011;6781;58.440;15.470;2022-08-05T02:46:55;1.80;;;1.30;;
13419;SDS011;6781;58.440;15.470;2022-08-05T02:49:23;2.70;;;1.65;;
13419;SDS011;6781;58.440;15.470;2022-08-05T02:51:55;4.55;;;2.00;;
13419;SDS011;6781;58.440;15.470;2022-08-05T02:54:23;3.45;;;1.50;;
13419;SDS011;6781;58.440;15.470;2022-08-05T02:56:51;1.75;;;1.40;;
13419;SDS011;6781;58.440;15.470;2022-08-05T02:59:19;4.18;;;1.77;;
13419;SDS011;6781;58.440;15.470;2022-08-05T03:01:49;2.70;;;1.80;;
13419;SDS011;6781;58.440;15.470;2022-08-05T03:04:22;1.85;;;1.50;;
13419;SDS011;6781;58.440;15.470;2022-08-05T03:06:49;3.72;;;1.70;;
13419;SDS011;6781;58.440;15.470;2022-08-05T03:09:16;1.80;;;1.70;;
13419;SDS011;6781;58.440;15.470;2022-08-05T03:11:43;1.58;;;1.48;;
13419;SDS011;6781;58.440;15.470;2022-08-05T03:14:10;2.72;;;1.55;;
13419;SDS011;6781;58.440;15.470;2022-08-05T03:16:37;1.67;;;1.55;;
13419;SDS011;6781;58.440;15.470;2022-08-05T03:19:05;1.63;;;1.50;;
13419;SDS011;6781;58.440;15.470;2022-08-05T03:21:32;2.00;;;1.90;;
13419;SDS011;6781;58.440;15.470;2022-08-05T03:23:59;1.73;;;1.63;;
13419;SDS011;6781;58.440;15.470;2022-08-05T03:26:26;1.92;;;1.73;;
13419;SDS011;6781;58.440;15.470;2022-08-05T03:28:53;1.75;;;1.63;;
13419;SDS011;6781;58.440;15.470;2022-08-05T03:31:20;1.70;;;1.45;;
13419;SDS011;6781;58.440;15.470;2022-08-05T03:33:47;1.80;;;1.70;;
13419;SDS011;6781;58.440;15.470;2022-08-05T03:36:15;2.00;;;1.80;;
13419;SDS011;6781;58.440;15.470;2022-08-05T03:38:42;1.70;;;1.60;;
13419;SDS011;6781;58.440;15.470;2022-08-05T03:41:09;2.70;;;1.95;;
13419;SDS011;6781;58.440;15.470;2022-08-05T03:43:39;2.90;;;1.92;;
13419;SDS011;6781;58.440;15.470;2022-08-05T03:46:06;3.30;;;1.77;;
13419;SDS011;6781;58.440;15.470;2022-08-05T03:48:33;4.00;;;1.95;;
13419;SDS011;6781;58.440;15.470;2022-08-05T03:51:01;4.85;;;2.05;;
13419;SDS011;6781;58.440;15.470;2022-08-05T03:53:36;3.28;;;2.00;;
13419;SDS011;6781;58.440;15.470;2022-08-05T03:56:21;4.78;;;2.13;;
13419;SDS011;6781;58.440;15.470;2022-08-05T03:58:54;2.38;;;1.92;;
13419;SDS011;6781;58.440;15.470;2022-08-05T04:01:25;3.97;;;2.25;;
13419;SDS011;6781;58.440;15.470;2022-08-05T04:03:56;7.78;;;2.13;;
13419;SDS011;6781;58.440;15.470;2022-08-05T04:06:24;4.28;;;2.28;;
13419;SDS011;6781;58.440;15.470;2022-08-05T04:08:53;3.53;;;2.08;;
13419;SDS011;6781;58.440;15.470;2022-08-05T04:11:22;7.18;;;2.30;;
13419;SDS011;6781;58.440;15.470;2022-08-05T04:13:50;3.70;;;1.98;;
13419;SDS011;6781;58.440;15.470;2022-08-05T04:16:17;4.32;;;2.50;;
13419;SDS011;6781;58.440;15.470;2022-08-05T04:18:44;4.32;;;1.90;;
13419;SDS011;6781;58.440;15.470;2022-08-05T04:21:11;6.88;;;2.47;;
13419;SDS011;6781;58.440;15.470;2022-08-05T04:23:38;3.75;;;2.00;;
13419;SDS011;6781;58.440;15.470;2022-08-05T04:26:07;2.25;;;1.98;;
13419;SDS011;6781;58.440;15.470;2022-08-05T04:28:33;5.97;;;2.35;;
13419;SDS011;6781;58.440;15.470;2022-08-05T04:31:00;3.70;;;2.10;;
13419;SDS011;6781;58.440;15.470;2022-08-05T04:33:27;6.45;;;2.03;;
13419;SDS011;6781;58.440;15.470;2022-08-05T04:35:54;5.78;;;2.20;;
13419;SDS011;6781;58.440;15.470;2022-08-05T04:38:21;5.20;;;1.80;;
13419;SDS011;6781;58.440;15.470;2022-08-05T04:40:48;5.00;;;2.28;;
13419;SDS011;6781;58.440;15.470;2022-08-05T04:43:16;8.60;;;2.20;;
13419;SDS011;6781;58.440;15.470;2022-08-05T04:45:43;7.50;;;2.35;;
13419;SDS011;6781;58.440;15.470;2022-08-05T04:48:10;9.95;;;2.42;;
13419;SDS011;6781;58.440;15.470;2022-08-05T04:50:38;6.68;;;2.45;;
13419;SDS011;6781;58.440;15.470;2022-08-05T04:53:06;7.68;;;2.50;;
13419;SDS011;6781;58.440;15.470;2022-08-05T04:55:34;8.57;;;3.92;;
13419;SDS011;6781;58.440;15.470;2022-08-05T04:58:01;9.82;;;2.40;;
13419;SDS011;6781;58.440;15.470;2022-08-05T05:00:31;6.90;;;2.85;;
13419;SDS011;6781;58.440;15.470;2022-08-05T05:02:58;7.55;;;2.85;;
13419;SDS011;6781;58.440;15.470;2022-08-05T05:05:25;12.45;;;3.03;;
13419;SDS011;6781;58.440;15.470;2022-08-05T05:07:51;4.28;;;2.20;;
13419;SDS011;6781;58.440;15.470;2022-08-05T05:10:19;10.52;;;3.20;;
13419;SDS011;6781;58.440;15.470;2022-08-05T05:12:46;3.78;;;2.58;;
13419;SDS011;6781;58.440;15.470;2022-08-05T05:15:12;8.20;;;2.97;;
13419;SDS011;6781;58.440;15.470;2022-08-05T05:17:41;8.32;;;3.22;;
13419;SDS011;6781;58.440;15.470;2022-08-05T05:20:08;4.85;;;2.20;;
13419;SDS011;6781;58.440;15.470;2022-08-05T05:22:37;11.30;;;3.25;;
13419;SDS011;6781;58.440;15.470;2022-08-05T05:25:05;7.65;;;2.50;;
13419;SDS011;6781;58.440;15.470;2022-08-05T05:27:33;7.75;;;2.58;;
13419;SDS011;6781;58.440;15.470;2022-08-05T05:30:01;7.88;;;2.17;;
13419;SDS011;6781;58.440;15.470;2022-08-05T05:32:28;10.35;;;2.72;;
13419;SDS011;6781;58.440;15.470;2022-08-05T05:34:56;5.03;;;2.38;;
13419;SDS011;6781;58.440;15.470;2022-08-05T05:37:23;7.63;;;2.30;;
13419;SDS011;6781;58.440;15.470;2022-08-05T05:39:49;5.40;;;2.25;;
13419;SDS011;6781;58.440;15.470;2022-08-05T05:42:16;8.15;;;2.05;;
13419;SDS011;6781;58.440;15.470;2022-08-05T05:44:43;5.80;;;2.00;;
13419;SDS011;6781;58.440;15.470;2022-08-05T05:47:10;2.92;;;1.67;;
13419;SDS011;6781;58.440;15.470;2022-08-05T05:49:37;4.53;;;2.00;;
13419;SDS011;6781;58.440;15.470;2022-08-05T05:52:05;4.55;;;2.00;;
13419;SDS011;6781;58.440;15.470;2022-08-05T05:54:32;6.97;;;2.30;;
13419;SDS011;6781;58.440;15.470;2022-08-05T05:56:58;3.53;;;1.88;;
13419;SDS011;6781;58.440;15.470;2022-08-05T05:59:25;4.35;;;1.98;;
13419;SDS011;6781;58.440;15.470;2022-08-05T06:01:52;5.82;;;2.15;;
13419;SDS011;6781;58.440;15.470;2022-08-05T06:04:19;5.18;;;2.15;;
13419;SDS011;6781;58.440;15.470;2022-08-05T06:06:46;3.20;;;1.85;;
13419;SDS011;6781;58.440;15.470;2022-08-05T06:09:14;3.05;;;1.90;;
13419;SDS011;6781;58.440;15.470;2022-08-05T06:11:41;3.05;;;2.20;;
13419;SDS011;6781;58.440;15.470;2022-08-05T06:14:09;3.42;;;1.90;;
13419;SDS011;6781;58.440;15.470;2022-08-05T06:16:36;4.60;;;2.22;;
13419;SDS011;6781;58.440;15.470;2022-08-05T06:19:03;3.08;;;2.10;;
13419;SDS011;6781;58.440;15.470;2022-08-05T06:21:32;5.72;;;2.53;;
13419;SDS011;6781;58.440;15.470;2022-08-05T06:23:59;3.38;;;2.45;;
13419;SDS011;6781;58.440;15.470;2022-08-05T06:26:27;3.00;;;2.28;;
13419;SDS011;6781;58.440;15.470;2022-08-05T06:28:54;4.45;;;2.28;;
13419;SDS011;6781;58.440;15.470;2022-08-05T06:31:21;5.15;;;2.75;;
13419;SDS011;6781;58.440;15.470;2022-08-05T06:33:48;4.38;;;2.88;;
13419;SDS011;6781;58.440;15.470;2022-08-05T06:36:15;6.32;;;3.50;;
13419;SDS011;6781;58.440;15.470;2022-08-05T06:38:41;5.28;;;3.22;;
13419;SDS011;6781;58.440;15.470;2022-08-05T06:41:08;3.80;;;2.92;;
13419;SDS011;6781;58.440;15.470;2022-08-05T06:43:37;4.40;;;2.92;;
13419;SDS011;6781;58.440;15.470;2022-08-05T06:46:03;4.13;;;3.65;;
13419;SDS011;6781;58.440;15.470;2022-08-05T06:48:31;6.13;;;4.10;;
13419;SDS011;6781;58.440;15.470;2022-08-05T06:50:59;6.07;;;3.30;;
13419;SDS011;6781;58.440;15.470;2022-08-05T06:53:25;5.63;;;3.58;;
13419;SDS011;6781;58.440;15.470;2022-08-05T06:55:52;6.97;;;3.50;;
13419;SDS011;6781;58.440;15.470;2022-08-05T06:58:19;5.78;;;4.40;;
13419;SDS011;6781;58.440;15.470;2022-08-05T07:00:48;7.35;;;4.40;;
13419;SDS011;6781;58.440;15.470;2022-08-05T07:03:14;8.48;;;3.85;;
13419;SDS011;6781;58.440;15.470;2022-08-05T07:05:41;7.78;;;4.05;;
13419;SDS011;6781;58.440;15.470;2022-08-05T07:08:08;5.43;;;4.00;;
13419;SDS011;6781;58.440;15.470;2022-08-05T07:10:35;7.95;;;3.58;;
13419;SDS011;6781;58.440;15.470;2022-08-05T07:13:01;5.78;;;4.57;;
13419;SDS011;6781;58.440;15.470;2022-08-05T07:15:47;5.70;;;3.60;;
13419;SDS011;6781;58.440;15.470;2022-08-05T07:18:32;4.75;;;3.60;;
13419;SDS011;6781;58.440;15.470;2022-08-05T07:20:59;3.97;;;3.58;;
13419;SDS011;6781;58.440;15.470;2022-08-05T07:23:25;4.50;;;3.33;;
13419;SDS011;6781;58.440;15.470;2022-08-05T07:25:52;8.48;;;4.28;;
13419;SDS011;6781;58.440;15.470;2022-08-05T07:28:19;4.65;;;3.72;;
13419;SDS011;6781;58.440;15.470;2022-08-05T07:30:47;5.88;;;3.15;;
13419;SDS011;6781;58.440;15.470;2022-08-05T07:33:15;37.85;;;6.50;;
13419;SDS011;6781;58.440;15.470;2022-08-05T07:35:42;13.95;;;4.43;;
13419;SDS011;6781;58.440;15.470;2022-08-05T07:38:09;6.75;;;3.67;;
13419;SDS011;6781;58.440;15.470;2022-08-05T07:40:36;3.85;;;3.45;;
13419;SDS011;6781;58.440;15.470;2022-08-05T07:43:03;6.57;;;3.35;;
13419;SDS011;6781;58.440;15.470;2022-08-05T07:45:30;6.65;;;3.80;;
13419;SDS011;6781;58.440;15.470;2022-08-05T07:47:59;6.03;;;3.58;;
13419;SDS011;6781;58.440;15.470;2022-08-05T07:50:25;7.10;;;4.00;;
13419;SDS011;6781;58.440;15.470;2022-08-05T07:52:52;5.93;;;3.65;;
13419;SDS011;6781;58.440;15.470;2022-08-05T07:55:19;5.00;;;3.50;;
13419;SDS011;6781;58.440;15.470;2022-08-05T07:57:46;8.70;;;4.00;;
13419;SDS011;6781;58.440;15.470;2022-08-05T08:00:25;5.28;;;3.80;;
13419;SDS011;6781;58.440;15.470;2022-08-05T08:02:52;5.57;;;3.20;;
13419;SDS011;6781;58.440;15.470;2022-08-05T08:05:27;3.58;;;3.28;;
13419;SDS011;6781;58.440;15.470;2022-08-05T08:07:54;5.07;;;3.40;;
13419;SDS011;6781;58.440;15.470;2022-08-05T08:10:24;3.80;;;3.08;;
13419;SDS011;6781;58.440;15.470;2022-08-05T08:13:06;5.18;;;2.95;;
13419;SDS011;6781;58.440;15.470;2022-08-05T08:15:34;3.92;;;2.80;;
13419;SDS011;6781;58.440;15.470;2022-08-05T08:18:01;8.60;;;3.65;;
13419;SDS011;6781;58.440;15.470;2022-08-05T08:20:33;4.47;;;3.10;;
13419;SDS011;6781;58.440;15.470;2022-08-05T08:23:02;6.68;;;3.00;;
13419;SDS011;6781;58.440;15.470;2022-08-05T08:25:31;3.30;;;2.40;;
13419;SDS011;6781;58.440;15.470;2022-08-05T08:28:05;4.30;;;2.70;;
13419;SDS011;6781;58.440;15.470;2022-08-05T08:30:32;4.50;;;3.28;;
13419;SDS011;6781;58.440;15.470;2022-08-05T08:32:59;3.45;;;3.15;;
13419;SDS011;6781;58.440;15.470;2022-08-05T08:35:31;5.18;;;3.50;;
13419;SDS011;6781;58.440;15.470;2022-08-05T08:37:58;5.25;;;3.13;;
13419;SDS011;6781;58.440;15.470;2022-08-05T08:40:25;5.22;;;3.70;;
13419;SDS011;6781;58.440;15.470;2022-08-05T08:42:52;3.42;;;3.10;;
13419;SDS011;6781;58.440;15.470;2022-08-05T08:45:19;5.18;;;3.50;;
13419;SDS011;6781;58.440;15.470;2022-08-05T08:47:49;8.60;;;3.30;;
13419;SDS011;6781;58.440;15.470;2022-08-05T08:50:16;6.10;;;3.65;;
13419;SDS011;6781;58.440;15.470;2022-08-05T08:52:49;4.85;;;3.25;;
13419;SDS011;6781;58.440;15.470;2022-08-05T08:55:20;7.82;;;4.10;;
13419;SDS011;6781;58.440;15.470;2022-08-05T08:57:47;4.82;;;4.03;;
13419;SDS011;6781;58.440;15.470;2022-08-05T09:00:14;6.80;;;4.20;;
13419;SDS011;6781;58.440;15.470;2022-08-05T09:02:42;7.75;;;4.47;;
13419;SDS011;6781;58.440;15.470;2022-08-05T09:05:10;4.68;;;3.80;;
13419;SDS011;6781;58.440;15.470;2022-08-05T09:07:37;5.53;;;3.38;;
13419;SDS011;6781;58.440;15.470;2022-08-05T09:10:06;4.88;;;3.60;;
13419;SDS011;6781;58.440;15.470;2022-08-05T09:12:33;6.10;;;3.95;;
13419;SDS011;6781;58.440;15.470;2022-08-05T09:15:01;6.68;;;4.20;;
13419;SDS011;6781;58.440;15.470;2022-08-05T09:17:29;5.85;;;4.25;;
13419;SDS011;6781;58.440;15.470;2022-08-05T09:19:58;4.70;;;3.72;;
13419;SDS011;6781;58.440;15.470;2022-08-05T09:22:25;3.95;;;3.55;;
13419;SDS011;6781;58.440;15.470;2022-08-05T09:24:56;4.43;;;4.00;;
13419;SDS011;6781;58.440;15.470;2022-08-05T09:27:29;4.93;;;4.38;;
13419;SDS011;6781;58.440;15.470;2022-08-05T09:29:58;8.95;;;4.00;;
13419;SDS011;6781;58.440;15.470;2022-08-05T09:32:33;5.55;;;4.60;;
13419;SDS011;6781;58.440;15.470;2022-08-05T09:35:08;5.50;;;4.50;;
13419;SDS011;6781;58.440;15.470;2022-08-05T09:37:36;8.05;;;5.68;;
13419;SDS011;6781;58.440;15.470;2022-08-05T09:40:05;8.00;;;5.78;;
13419;SDS011;6781;58.440;15.470;2022-08-05T09:42:39;7.45;;;5.55;;
13419;SDS011;6781;58.440;15.470;2022-08-05T09:45:06;9.90;;;6.72;;
13419;SDS011;6781;58.440;15.470;2022-08-05T09:47:35;8.60;;;6.32;;
13419;SDS011;6781;58.440;15.470;2022-08-05T09:50:06;8.55;;;6.68;;
13419;SDS011;6781;58.440;15.470;2022-08-05T09:52:35;10.75;;;6.85;;
13419;SDS011;6781;58.440;15.470;2022-08-05T09:55:03;7.95;;;6.15;;
13419;SDS011;6781;58.440;15.470;2022-08-05T09:57:33;7.93;;;7.07;;
13419;SDS011;6781;58.440;15.470;2022-08-05T10:00:07;11.60;;;7.90;;
13419;SDS011;6781;58.440;15.470;2022-08-05T10:02:37;9.02;;;7.60;;
13419;SDS011;6781;58.440;15.470;2022-08-05T10:05:09;9.18;;;7.63;;
13419;SDS011;6781;58.440;15.470;2022-08-05T10:07:46;8.77;;;7.93;;
13419;SDS011;6781;58.440;15.470;2022-08-05T10:10:15;10.63;;;8.35;;
13419;SDS011;6781;58.440;15.470;2022-08-05T10:12:50;13.77;;;8.77;;
13419;SDS011;6781;58.440;15.470;2022-08-05T10:15:26;10.68;;;7.35;;
13419;SDS011;6781;58.440;15.470;2022-08-05T10:18:06;8.93;;;7.70;;
13419;SDS011;6781;58.440;15.470;2022-08-05T10:20:51;10.32;;;8.07;;
13419;SDS011;6781;58.440;15.470;2022-08-05T10:23:22;7.80;;;7.00;;
13419;SDS011;6781;58.440;15.470;2022-08-05T10:25:58;7.57;;;6.88;;
13419;SDS011;6781;58.440;15.470;2022-08-05T10:28:27;8.45;;;7.43;;
13419;SDS011;6781;58.440;15.470;2022-08-05T10:30:57;9.15;;;7.60;;
13419;SDS011;6781;58.440;15.470;2022-08-05T10:33:26;8.20;;;6.78;;
13419;SDS011;6781;58.440;15.470;2022-08-05T10:35:56;7.82;;;6.38;;
13419;SDS011;6781;58.440;15.470;2022-08-05T10:38:24;6.85;;;6.15;;
13419;SDS011;6781;58.440;15.470;2022-08-05T10:40:55;7.75;;;6.07;;
13419;SDS011;6781;58.440;15.470;2022-08-05T10:43:34;8.18;;;6.70;;
13419;SDS011;6781;58.440;15.470;2022-08-05T10:49:18;6.50;;;5.90;;
13419;SDS011;6781;58.440;15.470;2022-08-05T10:51:56;7.10;;;6.40;;
13419;SDS011;6781;58.440;15.470;2022-08-05T10:54:23;8.50;;;5.97;;
13419;SDS011;6781;58.440;15.470;2022-08-05T10:57:25;9.15;;;6.97;;
13419;SDS011;6781;58.440;15.470;2022-08-05T11:00:05;9.07;;;6.45;;
13419;SDS011;6781;58.440;15.470;2022-08-05T11:02:34;7.60;;;6.72;;
13419;SDS011;6781;58.440;15.470;2022-08-05T11:11:46;10.02;;;7.13;;
13419;SDS011;6781;58.440;15.470;2022-08-05T11:14:21;6.90;;;6.30;;
13419;SDS011;6781;58.440;15.470;2022-08-05T11:19:55;8.77;;;6.60;;
13419;SDS011;6781;58.440;15.470;2022-08-05T11:22:36;6.97;;;6.28;;
13419;SDS011;6781;58.440;15.470;2022-08-05T11:25:32;7.75;;;5.38;;
13419;SDS011;6781;58.440;15.470;2022-08-05T11:31:26;5.63;;;5.07;;
13419;SDS011;6781;58.440;15.470;2022-08-05T11:33:57;5.82;;;5.32;;
13419;SDS011;6781;58.440;15.470;2022-08-05T11:36:43;5.13;;;4.60;;
13419;SDS011;6781;58.440;15.470;2022-08-05T11:42:22;6.88;;;4.78;;
13419;SDS011;6781;58.440;15.470;2022-08-05T11:44:50;4.75;;;4.35;;
13419;SDS011;6781;58.440;15.470;2022-08-05T11:47:25;7.40;;;4.82;;
13419;SDS011;6781;58.440;15.470;2022-08-05T11:49:54;6.88;;;4.88;;
13419;SDS011;6781;58.440;15.470;2022-08-05T11:52:22;4.60;;;4.25;;
13419;SDS011;6781;58.440;15.470;2022-08-05T11:54:50;4.80;;;4.40;;
13419;SDS011;6781;58.440;15.470;2022-08-05T11:57:17;4.85;;;4.35;;
13419;SDS011;6781;58.440;15.470;2022-08-05T11:59:46;6.32;;;4.60;;
13419;SDS011;6781;58.440;15.470;2022-08-05T12:02:13;6.20;;;4.65;;
13419;SDS011;6781;58.440;15.470;2022-08-05T12:04:41;4.38;;;4.07;;
13419;SDS011;6781;58.440;15.470;2022-08-05T12:07:11;5.30;;;3.75;;
13419;SDS011;6781;58.440;15.470;2022-08-05T12:09:39;6.65;;;4.13;;
13419;SDS011;6781;58.440;15.470;2022-08-05T12:12:08;5.22;;;4.45;;
13419;SDS011;6781;58.440;15.470;2022-08-05T12:14:36;4.35;;;3.80;;
13419;SDS011;6781;58.440;15.470;2022-08-05T12:17:11;7.78;;;4.10;;
13419;SDS011;6781;58.440;15.470;2022-08-05T12:19:39;4.22;;;3.83;;
13419;SDS011;6781;58.440;15.470;2022-08-05T12:22:07;4.40;;;4.00;;
13419;SDS011;6781;58.440;15.470;2022-08-05T12:24:39;4.78;;;3.80;;
13419;SDS011;6781;58.440;15.470;2022-08-05T12:27:07;5.18;;;4.03;;
13419;SDS011;6781;58.440;15.470;2022-08-05T12:29:34;6.38;;;4.18;;
13419;SDS011;6781;58.440;15.470;2022-08-05T12:32:04;6.32;;;4.60;;
13419;SDS011;6781;58.440;15.470;2022-08-05T12:34:34;4.80;;;3.72;;
13419;SDS011;6781;58.440;15.470;2022-08-05T12:37:04;6.45;;;4.10;;
13419;SDS011;6781;58.440;15.470;2022-08-05T12:39:36;5.38;;;3.90;;
13419;SDS011;6781;58.440;15.470;2022-08-05T12:42:07;4.70;;;3.63;;
13419;SDS011;6781;58.440;15.470;2022-08-05T12:44:38;4.15;;;3.47;;
13419;SDS011;6781;58.440;15.470;2022-08-05T12:47:05;6.30;;;3.47;;
13419;SDS011;6781;58.440;15.470;2022-08-05T12:49:41;5.03;;;3.38;;
13419;SDS011;6781;58.440;15.470;2022-08-05T12:54:48;6.40;;;3.15;;
13419;SDS011;6781;58.440;15.470;2022-08-05T12:57:18;4.72;;;3.20;;
13419;SDS011;6781;58.440;15.470;2022-08-05T12:59:46;4.85;;;3.00;;
13419;SDS011;6781;58.440;15.470;2022-08-05T13:02:18;5.10;;;2.92;;
13419;SDS011;6781;58.440;15.470;2022-08-05T13:07:58;5.53;;;2.83;;
13419;SDS011;6781;58.440;15.470;2022-08-05T13:10:40;3.75;;;2.53;;
13419;SDS011;6781;58.440;15.470;2022-08-05T13:13:28;3.22;;;2.20;;
13419;SDS011;6781;58.440;15.470;2022-08-05T13:15:55;3.42;;;2.50;;
13419;SDS011;6781;58.440;15.470;2022-08-05T13:18:50;3.78;;;2.50;;
13419;SDS011;6781;58.440;15.470;2022-08-05T13:21:18;3.97;;;2.53;;
13419;SDS011;6781;58.440;15.470;2022-08-05T13:26:50;3.05;;;1.88;;
13419;SDS011;6781;58.440;15.470;2022-08-05T13:29:17;5.45;;;2.67;;
13419;SDS011;6781;58.440;15.470;2022-08-05T13:31:45;4.75;;;2.20;;
13419;SDS011;6781;58.440;15.470;2022-08-05T13:34:12;3.75;;;2.72;;
13419;SDS011;6781;58.440;15.470;2022-08-05T13:36:40;3.90;;;2.40;;
13419;SDS011;6781;58.440;15.470;2022-08-05T13:39:08;3.90;;;2.60;;
13419;SDS011;6781;58.440;15.470;2022-08-05T13:41:37;4.05;;;2.53;;
13419;SDS011;6781;58.440;15.470;2022-08-05T13:44:05;3.00;;;2.63;;
13419;SDS011;6781;58.440;15.470;2022-08-05T13:46:33;5.22;;;2.78;;
13419;SDS011;6781;58.440;15.470;2022-08-05T13:49:00;6.65;;;2.80;;
13419;SDS011;6781;58.440;15.470;2022-08-05T13:51:32;5.07;;;2.60;;
13419;SDS011;6781;58.440;15.470;2022-08-05T13:54:07;5.13;;;2.65;;
13419;SDS011;6781;58.440;15.470;2022-08-05T14:05:25;5.15;;;2.25;;
13419;SDS011;6781;58.440;15.470;2022-08-05T14:07:52;6.30;;;2.70;;
13419;SDS011;6781;58.440;15.470;2022-08-05T14:10:21;3.83;;;2.67;;
13419;SDS011;6781;58.440;15.470;2022-08-05T14:12:48;3.40;;;2.40;;
13419;SDS011;6781;58.440;15.470;2022-08-05T14:15:16;4.93;;;2.58;;
13419;SDS011;6781;58.440;15.470;2022-08-05T14:17:44;2.47;;;2.10;;
13419;SDS011;6781;58.440;15.470;2022-08-05T14:20:12;2.40;;;2.25;;
13419;SDS011;6781;58.440;15.470;2022-08-05T14:22:41;5.40;;;2.40;;
13419;SDS011;6781;58.440;15.470;2022-08-05T14:25:08;6.38;;;2.28;;
13419;SDS011;6781;58.440;15.470;2022-08-05T14:27:52;2.70;;;1.92;;
13419;SDS011;6781;58.440;15.470;2022-08-05T14:30:33;4.18;;;2.25;;
13419;SDS011;6781;58.440;15.470;2022-08-05T14:33:13;2.05;;;1.50;;
13419;SDS011;6781;58.440;15.470;2022-08-05T14:35:55;1.75;;;1.40;;
13419;SDS011;6781;58.440;15.470;2022-08-05T14:44:55;1.45;;;1.30;;
13419;SDS011;6781;58.440;15.470;2022-08-05T14:47:25;3.05;;;1.40;;
13419;SDS011;6781;58.440;15.470;2022-08-05T14:49:54;1.88;;;1.30;;
13419;SDS011;6781;58.440;15.470;2022-08-05T14:52:38;1.50;;;1.40;;
13419;SDS011;6781;58.440;15.470;2022-08-05T14:55:22;2.80;;;1.23;;
13419;SDS011;6781;58.440;15.470;2022-08-05T14:58:09;1.50;;;1.38;;
13419;SDS011;6781;58.440;15.470;2022-08-05T15:13:51;3.28;;;1.70;;
13419;SDS011;6781;58.440;15.470;2022-08-05T15:16:32;2.13;;;1.60;;
13419;SDS011;6781;58.440;15.470;2022-08-05T15:19:14;2.28;;;1.38;;
13419;SDS011;6781;58.440;15.470;2022-08-05T15:21:57;2.88;;;1.50;;
13419;SDS011;6781;58.440;15.470;2022-08-05T15:24:25;1.85;;;1.50;;
13419;SDS011;6781;58.440;15.470;2022-08-05T15:27:06;4.30;;;1.70;;
13419;SDS011;6781;58.440;15.470;2022-08-05T15:29:34;2.97;;;1.65;;
13419;SDS011;6781;58.440;15.470;2022-08-05T15:32:02;3.42;;;1.60;;
13419;SDS011;6781;58.440;15.470;2022-08-05T15:34:31;1.65;;;1.55;;
13419;SDS011;6781;58.440;15.470;2022-08-05T15:37:12;1.92;;;1.73;;
13419;SDS011;6781;58.440;15.470;2022-08-05T15:39:53;2.55;;;1.63;;
13419;SDS011;6781;58.440;15.470;2022-08-05T15:42:34;4.28;;;1.80;;
13419;SDS011;6781;58.440;15.470;2022-08-05T16:13:58;2.15;;;1.90;;
13419;SDS011;6781;58.440;15.470;2022-08-05T16:16:25;2.20;;;1.92;;
13419;SDS011;6781;58.440;15.470;2022-08-05T16:30:59;3.33;;;1.85;;
13419;SDS011;6781;58.440;15.470;2022-08-05T16:33:28;16.02;;;3.20;;
13419;SDS011;6781;58.440;15.470;2022-08-05T16:35:57;2.25;;;2.03;;
13419;SDS011;6781;58.440;15.470;2022-08-05T16:38:25;2.40;;;1.80;;
13419;SDS011;6781;58.440;15.470;2022-08-05T16:41:07;2.38;;;1.83;;
13419;SDS011;6781;58.440;15.470;2022-08-05T16:43:50;2.65;;;1.80;;
13419;SDS011;6781;58.440;15.470;2022-08-05T16:52:42;2.95;;;2.00;;
13419;SDS011;6781;58.440;15.470;2022-08-05T16:55:10;6.50;;;2.00;;